createdAt,value
2023-05-19T00:00:48.966Z,2.70
2023-05-19T00:06:11.647Z,3.22
2023-05-19T00:11:33.892Z,2.63
2023-05-19T00:16:56.035Z,2.22
2023-05-19T00:22:16.789Z,2.58
2023-05-19T00:27:37.421Z,3.63
2023-05-19T00:32:58.591Z,2.33
2023-05-19T00:38:19.486Z,2.25
2023-05-19T00:43:40.078Z,2.83
2023-05-19T00:49:01.019Z,2.33
2023-05-19T00:54:21.551Z,2.38
2023-05-19T00:59:42.285Z,1.95
2023-05-19T01:05:03.081Z,2.80
2023-05-19T01:10:23.682Z,2.88
2023-05-19T01:15:55.670Z,2.70
2023-05-19T01:21:28.616Z,2.00
2023-05-19T01:27:09.951Z,2.70
2023-05-19T01:32:33.259Z,3.03
2023-05-19T01:37:58.720Z,3.30
2023-05-19T01:43:24.450Z,2.50
2023-05-19T01:48:45.586Z,2.60
2023-05-19T01:54:07.184Z,2.15
2023-05-19T01:59:56.614Z,2.15
2023-05-19T02:05:29.529Z,2.30
2023-05-19T02:10:57.496Z,2.63
2023-05-19T02:16:21.948Z,2.85
2023-05-19T02:21:42.267Z,2.27
2023-05-19T02:27:03.351Z,3.17
2023-05-19T02:32:24.046Z,3.05
2023-05-19T02:37:44.750Z,2.65
2023-05-19T02:43:05.375Z,2.72
2023-05-19T02:48:26.301Z,2.25
2023-05-19T02:53:46.635Z,2.25
2023-05-19T02:59:07.415Z,2.60
2023-05-19T03:04:29.459Z,2.85
2023-05-19T03:09:50.020Z,2.55
2023-05-19T03:15:13.064Z,3.10
2023-05-19T03:20:33.710Z,2.55
2023-05-19T03:25:55.925Z,3.75
2023-05-19T03:31:17.628Z,3.22
2023-05-19T03:36:41.349Z,3.10
2023-05-19T03:42:09.481Z,3.65
2023-05-19T03:47:31.709Z,2.72
2023-05-19T03:53:22.360Z,3.08
2023-05-19T03:58:44.379Z,3.10
2023-05-19T04:04:05.179Z,3.22
2023-05-19T04:09:25.863Z,3.83
2023-05-19T04:14:46.609Z,5.00
2023-05-19T04:20:07.300Z,3.53
2023-05-19T04:25:28.330Z,3.55
2023-05-19T04:30:50.558Z,3.95
2023-05-19T04:36:13.674Z,4.43
2023-05-19T04:41:36.637Z,5.18
2023-05-19T04:47:00.069Z,4.60
2023-05-19T04:52:22.209Z,4.28
2023-05-19T04:57:44.001Z,4.65
2023-05-19T05:03:07.166Z,4.57
2023-05-19T05:08:28.251Z,5.22
2023-05-19T05:13:48.980Z,5.75
2023-05-19T05:19:10.208Z,5.40
2023-05-19T05:24:31.933Z,4.85
2023-05-19T05:29:54.243Z,4.70
2023-05-19T05:35:15.576Z,5.07
2023-05-19T05:40:37.215Z,4.85
2023-05-19T05:45:59.460Z,4.85
2023-05-19T05:51:23.727Z,4.75
2023-05-19T05:56:44.745Z,4.90
2023-05-19T06:02:05.723Z,4.95
2023-05-19T06:07:27.533Z,4.50
2023-05-19T06:12:48.603Z,4.38
2023-05-19T06:18:09.781Z,4.38
2023-05-19T06:23:31.263Z,3.58
2023-05-19T06:28:52.243Z,4.05
2023-05-19T06:34:16.513Z,3.95
2023-05-19T06:47:12.692Z,4.03
2023-05-19T06:52:33.332Z,3.50
2023-05-19T06:57:55.899Z,3.95
2023-05-19T07:03:16.624Z,3.47
2023-05-19T07:08:37.748Z,3.38
2023-05-19T07:14:00.980Z,3.78
2023-05-19T07:19:25.224Z,4.35
2023-05-19T07:24:48.204Z,3.97
2023-05-19T07:30:12.825Z,3.85
2023-05-19T07:35:34.922Z,3.10
2023-05-19T07:40:55.440Z,3.08
2023-05-19T07:46:16.391Z,4.13
2023-05-19T07:51:37.017Z,3.42
2023-05-19T07:56:57.946Z,3.47
2023-05-19T08:02:18.693Z,3.40
2023-05-19T08:07:39.630Z,3.40
2023-05-19T08:12:59.885Z,3.00
2023-05-19T08:18:20.682Z,3.38
2023-05-19T08:23:41.215Z,2.97
2023-05-19T08:29:01.877Z,3.67
2023-05-19T08:34:22.483Z,2.97
2023-05-19T08:39:42.961Z,3.22
2023-05-19T08:45:04.077Z,2.90
2023-05-19T08:50:30.705Z,2.83
2023-05-19T08:56:11.148Z,3.53
2023-05-19T09:01:32.268Z,2.72
2023-05-19T09:06:53.181Z,2.42
2023-05-19T09:12:14.309Z,2.95
2023-05-19T09:17:35.984Z,2.55
2023-05-19T09:22:57.395Z,3.25
2023-05-19T09:28:30.491Z,3.28
2023-05-19T09:33:53.351Z,3.03
2023-05-19T09:39:18.510Z,3.33
2023-05-19T09:44:39.353Z,3.58
2023-05-19T09:50:00.010Z,3.80
2023-05-19T09:55:23.219Z,3.60
2023-05-19T10:00:45.238Z,3.70
2023-05-19T10:06:07.438Z,3.70
2023-05-19T10:11:30.058Z,4.00
2023-05-19T10:16:59.272Z,3.47
2023-05-19T10:22:19.910Z,4.40
2023-05-19T10:27:44.880Z,4.10
2023-05-19T10:33:10.344Z,3.60
2023-05-19T10:38:45.795Z,4.47
2023-05-19T10:44:36.069Z,3.95
2023-05-19T10:50:00.258Z,3.90
2023-05-19T10:55:47.720Z,4.07
2023-05-19T11:01:16.941Z,4.10
2023-05-19T11:06:38.088Z,4.38
2023-05-19T11:12:03.345Z,3.97
2023-05-19T11:17:25.048Z,4.07
2023-05-19T11:23:01.698Z,3.58
2023-05-19T11:28:28.040Z,4.28
2023-05-19T11:33:48.449Z,3.83
2023-05-19T11:39:10.460Z,4.15
2023-05-19T11:44:31.699Z,3.85
2023-05-19T11:49:52.554Z,4.10
2023-05-19T11:55:22.583Z,3.65
2023-05-19T12:00:46.240Z,3.75
2023-05-19T12:06:08.387Z,3.78
2023-05-19T12:11:29.245Z,3.38
2023-05-19T12:16:49.904Z,4.00
2023-05-19T12:22:11.136Z,3.45
2023-05-19T12:27:37.226Z,3.70
2023-05-19T12:32:58.280Z,4.47
2023-05-19T12:38:20.908Z,3.85
2023-05-19T12:43:41.497Z,3.75
2023-05-19T12:49:02.033Z,3.00
2023-05-19T12:54:22.466Z,3.97
2023-05-19T12:59:43.415Z,4.07
2023-05-19T13:05:04.921Z,3.90
2023-05-19T13:10:29.422Z,4.35
2023-05-19T13:16:09.166Z,3.40
2023-05-19T13:21:50.517Z,3.85
2023-05-19T13:27:11.172Z,3.75
2023-05-19T13:32:32.035Z,4.70
2023-05-19T13:37:52.965Z,3.63
2023-05-19T13:43:13.700Z,3.75
2023-05-19T13:48:34.148Z,3.83
2023-05-19T13:53:54.992Z,4.32
2023-05-19T13:59:17.249Z,5.30
2023-05-19T14:04:38.945Z,5.55
2023-05-19T14:09:59.618Z,5.07
2023-05-19T14:15:20.552Z,4.03
2023-05-19T14:20:40.955Z,4.25
2023-05-19T14:26:01.786Z,5.03
2023-05-19T14:31:22.366Z,6.22
2023-05-19T14:36:44.553Z,5.10
2023-05-19T14:42:05.170Z,4.75
2023-05-19T14:47:27.111Z,4.00
2023-05-19T14:52:48.106Z,4.85
2023-05-19T14:58:19.991Z,4.75
2023-05-19T15:03:49.114Z,5.75
2023-05-19T15:09:11.924Z,5.78
2023-05-19T15:14:32.672Z,5.80
2023-05-19T15:19:53.359Z,6.38
2023-05-19T15:25:13.867Z,5.93
2023-05-19T15:30:34.632Z,5.90
2023-05-19T15:35:55.447Z,7.25
2023-05-19T15:41:16.300Z,7.25
2023-05-19T15:46:36.811Z,5.72
2023-05-19T15:51:57.596Z,4.60
2023-05-19T15:57:18.485Z,3.97
2023-05-19T16:02:39.066Z,3.63
2023-05-19T16:07:59.987Z,3.70
2023-05-19T16:13:21.585Z,3.88
2023-05-19T16:18:44.206Z,3.47
2023-05-19T16:24:05.256Z,4.20
2023-05-19T16:29:26.209Z,3.03
2023-05-19T16:34:47.036Z,3.63
2023-05-19T16:40:08.303Z,3.28
2023-05-19T16:45:29.023Z,3.17
2023-05-19T16:50:49.849Z,3.20
2023-05-19T16:56:10.796Z,3.53
2023-05-19T17:01:31.412Z,3.60
2023-05-19T17:06:51.862Z,3.88
2023-05-19T17:12:13.316Z,3.70
2023-05-19T17:17:33.765Z,4.25
2023-05-19T17:22:54.593Z,3.42
2023-05-19T17:28:15.217Z,4.38
2023-05-19T17:33:36.230Z,4.03
2023-05-19T17:38:56.787Z,3.85
2023-05-19T17:44:17.503Z,3.95
2023-05-19T17:49:40.166Z,3.75
2023-05-19T17:55:01.266Z,4.15
2023-05-19T18:00:22.463Z,3.83
2023-05-19T18:05:44.643Z,3.20
2023-05-19T18:11:05.650Z,3.63
2023-05-19T18:16:27.339Z,3.78
2023-05-19T18:21:48.120Z,3.42
2023-05-19T18:27:08.777Z,5.13
2023-05-19T18:32:29.212Z,3.67
2023-05-19T18:37:50.058Z,4.28
2023-05-19T18:43:10.972Z,3.97
2023-05-19T18:48:33.275Z,3.03
2023-05-19T18:53:53.516Z,2.83
2023-05-19T18:59:14.386Z,3.45
2023-05-19T19:04:34.942Z,2.65
2023-05-19T19:09:55.538Z,2.25
2023-05-19T19:15:16.204Z,2.10
2023-05-19T19:20:36.663Z,2.15
2023-05-19T19:25:57.374Z,2.05
2023-05-19T19:31:18.168Z,2.05
2023-05-19T19:36:38.789Z,2.25
2023-05-19T19:41:59.152Z,2.55
2023-05-19T19:47:20.156Z,2.78
2023-05-19T19:52:41.295Z,2.25
2023-05-19T19:58:01.942Z,2.50
2023-05-19T20:03:23.075Z,2.67
2023-05-19T20:08:43.991Z,3.17
2023-05-19T20:14:05.058Z,3.17
2023-05-19T20:19:28.117Z,3.25
2023-05-19T20:24:48.610Z,2.65
2023-05-19T20:30:10.728Z,2.72
2023-05-19T20:35:31.883Z,2.38
2023-05-19T20:43:12.817Z,3.13
2023-05-19T20:48:33.512Z,4.03
2023-05-19T20:53:54.050Z,2.92
2023-05-19T20:59:14.552Z,3.67
2023-05-19T21:04:35.467Z,3.25
2023-05-19T21:09:57.588Z,3.05
2023-05-19T21:15:18.195Z,3.67
2023-05-19T21:20:39.300Z,3.20
2023-05-19T21:26:00.281Z,4.32
2023-05-19T21:31:20.816Z,3.17
2023-05-19T21:36:42.253Z,3.67
2023-05-19T21:42:03.502Z,3.03
2023-05-19T21:47:23.860Z,3.08
2023-05-19T21:52:44.581Z,2.92
2023-05-19T21:58:05.144Z,3.03
2023-05-19T22:03:26.172Z,2.97
2023-05-19T22:08:46.617Z,3.28
2023-05-19T22:14:07.481Z,3.67
2023-05-19T22:19:27.910Z,3.58
2023-05-19T22:24:48.975Z,3.25
2023-05-19T22:30:09.724Z,3.53
2023-05-19T22:35:30.330Z,3.25
2023-05-19T22:40:51.186Z,3.25
2023-05-19T22:46:11.565Z,3.00
2023-05-19T22:51:32.634Z,3.75
2023-05-19T22:56:53.541Z,4.43
2023-05-19T23:02:14.131Z,3.45
2023-05-19T23:07:34.788Z,4.90
2023-05-19T23:12:55.354Z,3.92
2023-05-19T23:18:15.978Z,4.57
2023-05-19T23:23:36.787Z,4.47
2023-05-19T23:28:57.321Z,4.43
2023-05-19T23:34:17.918Z,4.25
2023-05-19T23:39:38.520Z,4.40
2023-05-19T23:44:59.577Z,4.55
2023-05-19T23:50:20.204Z,4.28
2023-05-19T23:55:40.828Z,4.20
